createdAt,value
2023-01-01T00:00:43.949Z,7.20
2023-01-01T00:05:45.747Z,7.10
2023-01-01T00:10:47.475Z,7.20
2023-01-01T00:15:49.227Z,7.10
2023-01-01T00:20:50.929Z,7.10
2023-01-01T00:25:52.813Z,7.20
2023-01-01T00:30:55.090Z,7.20
2023-01-01T00:35:56.777Z,7.20
2023-01-01T00:40:58.550Z,7.20
2023-01-01T00:46:00.422Z,7.20
2023-01-01T00:51:02.604Z,7.20
2023-01-01T00:56:04.710Z,7.20
2023-01-01T01:01:06.685Z,7.20
2023-01-01T01:06:12.838Z,7.30
2023-01-01T01:11:17.465Z,7.30
2023-01-01T01:16:24.794Z,7.30
2023-01-01T01:21:28.408Z,7.40
2023-01-01T01:26:32.521Z,7.40
2023-01-01T01:31:35.000Z,7.40
2023-01-01T01:36:36.715Z,7.50
2023-01-01T01:41:38.458Z,7.50
2023-01-01T01:46:44.831Z,7.50
2023-01-01T01:51:46.698Z,7.50
2023-01-01T01:57:01.171Z,7.60
2023-01-01T02:02:03.114Z,7.60
2023-01-01T02:07:07.010Z,7.60
2023-01-01T02:12:08.796Z,7.60
2023-01-01T02:17:18.312Z,7.70
2023-01-01T02:22:35.786Z,7.70
2023-01-01T02:27:50.554Z,7.80
2023-01-01T02:32:59.012Z,7.80
2023-01-01T02:38:16.688Z,7.80
2023-01-01T02:43:24.458Z,7.80
2023-01-01T02:48:40.513Z,7.80
2023-01-01T02:53:52.009Z,7.80
2023-01-01T02:59:43.325Z,7.80
2023-01-01T03:05:07.795Z,7.80
2023-01-01T03:10:15.442Z,7.70
2023-01-01T03:15:46.001Z,7.80
2023-01-01T03:20:51.425Z,7.70
2023-01-01T03:25:57.573Z,7.80
2023-01-01T03:31:00.934Z,7.80
2023-01-01T03:36:17.047Z,7.80
2023-01-01T03:41:51.038Z,7.80
2023-01-01T03:46:53.503Z,7.80
2023-01-01T03:52:01.105Z,7.80
2023-01-01T03:57:16.788Z,7.80
2023-01-01T04:02:21.851Z,7.80
2023-01-01T04:07:24.345Z,7.90
2023-01-01T04:12:26.658Z,7.90
2023-01-01T04:17:28.428Z,7.90
2023-01-01T04:22:30.184Z,7.80
2023-01-01T04:27:31.976Z,7.80
2023-01-01T04:32:34.618Z,7.80
2023-01-01T04:37:36.742Z,7.80
2023-01-01T04:42:38.579Z,7.80
2023-01-01T04:47:41.436Z,7.70
2023-01-01T04:52:43.215Z,7.80
2023-01-01T04:57:45.010Z,7.80
2023-01-01T05:02:46.765Z,7.80
2023-01-01T05:07:48.462Z,7.80
2023-01-01T05:12:50.190Z,7.80
2023-01-01T05:17:51.900Z,7.80
2023-01-01T05:22:53.700Z,7.80
2023-01-01T05:27:55.412Z,7.90
2023-01-01T05:32:57.391Z,7.80
2023-01-01T05:38:00.179Z,7.80
2023-01-01T05:43:01.896Z,7.80
2023-01-01T05:48:04.282Z,7.80
2023-01-01T05:53:07.333Z,7.80
2023-01-01T05:58:09.062Z,7.80
2023-01-01T06:03:10.756Z,7.80
2023-01-01T06:08:13.065Z,7.80
2023-01-01T06:13:14.810Z,7.80
2023-01-01T06:18:16.535Z,7.80
2023-01-01T06:23:19.000Z,7.80
2023-01-01T06:28:20.692Z,7.80
2023-01-01T06:33:22.599Z,7.80
2023-01-01T06:38:24.456Z,7.80
2023-01-01T06:43:26.882Z,7.70
2023-01-01T06:48:30.207Z,7.80
2023-01-01T06:53:31.943Z,7.70
2023-01-01T06:58:34.248Z,7.80
2023-01-01T07:03:37.038Z,7.80
2023-01-01T07:08:38.757Z,7.80
2023-01-01T07:13:40.509Z,7.80
2023-01-01T07:18:42.661Z,7.70
2023-01-01T07:23:44.359Z,7.80
2023-01-01T07:28:46.087Z,7.70
2023-01-01T07:33:48.052Z,7.70
2023-01-01T07:38:49.751Z,7.70
2023-01-01T07:43:51.794Z,7.70
2023-01-01T07:48:53.615Z,7.80
2023-01-01T07:53:59.296Z,7.80
2023-01-01T07:59:04.671Z,7.80
2023-01-01T08:04:06.744Z,7.80
2023-01-01T08:09:09.575Z,7.80
2023-01-01T08:14:11.904Z,7.70
2023-01-01T08:19:13.616Z,7.70
2023-01-01T08:24:15.352Z,7.80
2023-01-01T08:29:17.641Z,7.80
2023-01-01T08:34:19.431Z,7.70
2023-01-01T08:39:21.143Z,7.70
2023-01-01T08:44:23.062Z,7.80
2023-01-01T08:49:25.192Z,7.80
2023-01-01T08:54:26.912Z,7.90
2023-01-01T08:59:28.764Z,7.80
2023-01-01T09:04:30.727Z,7.80
2023-01-01T09:09:32.503Z,7.70
2023-01-01T09:14:34.715Z,7.70
2023-01-01T09:19:36.460Z,7.70
2023-01-01T09:24:38.264Z,7.80
2023-01-01T09:29:40.017Z,7.80
2023-01-01T09:34:43.999Z,7.90
2023-01-01T09:39:49.162Z,8.00
2023-01-01T09:45:02.174Z,7.90
2023-01-01T09:50:27.958Z,7.70
2023-01-01T09:56:00.373Z,7.80
2023-01-01T10:01:16.252Z,7.80
2023-01-01T10:06:25.197Z,7.80
2023-01-01T10:11:47.921Z,7.70
2023-01-01T10:16:54.614Z,7.80
2023-01-01T10:22:02.308Z,7.80
2023-01-01T10:27:06.046Z,6.90
2023-01-01T10:32:21.082Z,6.40
2023-01-01T10:37:23.252Z,6.20
2023-01-01T10:42:26.317Z,6.20
2023-01-01T10:47:29.937Z,6.10
2023-01-01T10:52:42.878Z,6.00
2023-01-01T10:57:44.753Z,6.00
2023-01-01T11:02:46.576Z,5.90
2023-01-01T11:07:48.576Z,6.00
2023-01-01T11:13:06.983Z,5.90
2023-01-01T11:18:11.839Z,5.90
2023-01-01T11:23:32.463Z,5.90
2023-01-01T11:28:35.384Z,6.00
2023-01-01T11:33:45.799Z,5.90
2023-01-01T11:38:50.930Z,6.00
2023-01-01T11:43:52.981Z,5.90
2023-01-01T11:48:55.232Z,5.80
2023-01-01T11:54:32.783Z,5.80
2023-01-01T11:59:46.127Z,5.80
2023-01-01T12:04:54.677Z,5.70
2023-01-01T12:10:02.682Z,5.60
2023-01-01T12:15:36.734Z,5.60
2023-01-01T12:21:00.732Z,5.60
2023-01-01T12:26:05.263Z,5.50
2023-01-01T12:31:25.006Z,5.50
2023-01-01T12:36:38.431Z,5.50
2023-01-01T12:42:04.457Z,5.40
2023-01-01T12:47:21.288Z,5.50
2023-01-01T12:52:49.965Z,5.40
2023-01-01T12:58:09.283Z,5.30
2023-01-01T13:03:49.918Z,5.30
2023-01-01T13:09:11.423Z,5.20
2023-01-01T13:14:13.556Z,5.20
2023-01-01T13:19:40.951Z,5.10
2023-01-01T13:24:42.658Z,5.10
2023-01-01T13:29:45.698Z,5.00
2023-01-01T13:35:00.832Z,5.00
2023-01-01T13:40:11.561Z,4.90
2023-01-01T13:52:02.974Z,4.80
2023-01-01T13:57:04.384Z,4.80
2023-01-01T14:02:11.871Z,4.80
2023-01-01T14:07:51.245Z,4.70
2023-01-01T14:13:15.425Z,4.70
2023-01-01T14:18:18.533Z,4.80
2023-01-01T14:23:29.097Z,4.80
2023-01-01T14:28:35.160Z,4.80
2023-01-01T14:33:37.394Z,4.70
2023-01-01T14:38:44.778Z,4.70
2023-01-01T14:43:49.213Z,4.60
2023-01-01T14:48:54.473Z,4.60
2023-01-01T14:53:59.754Z,4.60
2023-01-01T14:59:06.251Z,4.60
2023-01-01T15:04:23.841Z,4.70
2023-01-01T15:09:27.472Z,4.60
2023-01-01T15:14:32.020Z,4.60
2023-01-01T15:19:37.407Z,4.60
2023-01-01T15:24:39.636Z,4.50
2023-01-01T15:29:47.472Z,4.60
2023-01-01T15:34:55.531Z,4.60
2023-01-01T15:39:59.076Z,4.50
2023-01-01T15:45:25.605Z,4.50
2023-01-01T15:50:32.669Z,4.40
2023-01-01T15:55:36.848Z,4.50
2023-01-01T16:00:41.633Z,4.60
2023-01-01T16:05:49.729Z,4.60
2023-01-01T16:10:52.361Z,4.60
2023-01-01T16:15:58.137Z,4.60
2023-01-01T16:21:01.011Z,4.60
2023-01-01T16:26:02.720Z,4.60
2023-01-01T16:31:04.686Z,4.60
2023-01-01T16:36:06.653Z,4.50
2023-01-01T16:41:14.434Z,4.40
2023-01-01T16:46:16.297Z,4.50
2023-01-01T16:51:25.035Z,4.40
2023-01-01T16:56:28.331Z,4.40
2023-01-01T17:01:30.462Z,4.20
2023-01-01T17:06:32.502Z,4.20
2023-01-01T17:11:34.428Z,4.20
2023-01-01T17:16:39.831Z,4.10
2023-01-01T17:21:42.119Z,4.20
2023-01-01T17:26:43.962Z,4.20
2023-01-01T17:31:45.758Z,4.20
2023-01-01T17:36:47.554Z,4.20
2023-01-01T17:41:49.433Z,4.20
2023-01-01T17:46:53.757Z,4.20
2023-01-01T17:51:56.943Z,4.20
2023-01-01T17:57:03.371Z,4.20
2023-01-01T18:02:06.058Z,4.20
2023-01-01T18:07:08.018Z,4.20
2023-01-01T18:12:09.740Z,4.10
2023-01-01T18:17:11.445Z,4.10
2023-01-01T18:22:13.702Z,4.10
2023-01-01T18:27:15.486Z,4.10
2023-01-01T18:32:17.192Z,4.00
2023-01-01T18:37:18.992Z,4.00
2023-01-01T18:42:50.367Z,4.00
2023-01-01T18:47:52.128Z,4.00
2023-01-01T18:53:14.756Z,4.00
2023-01-01T18:58:21.022Z,4.00
2023-01-01T19:03:28.377Z,4.00
2023-01-01T19:08:30.552Z,4.00
2023-01-01T19:13:40.287Z,4.10
2023-01-01T19:18:46.047Z,4.10
2023-01-01T19:23:57.399Z,4.10
2023-01-01T19:29:22.977Z,4.00
2023-01-01T19:34:25.414Z,4.00
2023-01-01T19:39:28.132Z,4.00
2023-01-01T19:44:31.086Z,4.00
2023-01-01T19:49:32.899Z,3.90
2023-01-01T19:54:34.850Z,4.00
2023-01-01T19:59:36.573Z,3.90
2023-01-01T20:04:38.467Z,4.00
2023-01-01T20:09:40.986Z,3.90
2023-01-01T20:14:42.707Z,3.90
2023-01-01T20:19:44.563Z,3.80
2023-01-01T20:24:46.308Z,3.90
2023-01-01T20:29:48.017Z,3.80
2023-01-01T20:34:50.584Z,3.70
2023-01-01T20:39:52.673Z,3.70
2023-01-01T20:44:54.506Z,3.80
2023-01-01T20:49:56.208Z,3.80
2023-01-01T20:54:58.236Z,3.80
2023-01-01T20:59:59.959Z,3.80
2023-01-01T21:05:01.987Z,3.80
2023-01-01T21:10:04.224Z,3.80
2023-01-01T21:15:15.250Z,3.80
2023-01-01T21:20:17.229Z,3.80
2023-01-01T21:25:52.844Z,3.80
2023-01-01T21:30:57.002Z,3.80
2023-01-01T21:36:02.425Z,3.80
2023-01-01T21:41:19.243Z,3.80
2023-01-01T21:46:39.449Z,3.80
2023-01-01T21:51:50.822Z,3.80
2023-01-01T21:56:56.842Z,3.80
2023-01-01T22:02:05.737Z,3.80
2023-01-01T22:13:01.085Z,3.80
2023-01-01T22:18:08.519Z,3.90
2023-01-01T22:23:19.366Z,3.90
2023-01-01T22:28:27.291Z,3.90
2023-01-01T22:33:39.469Z,3.80
2023-01-01T22:38:41.361Z,3.80
2023-01-01T22:43:45.792Z,3.80
2023-01-01T22:48:51.248Z,3.80
2023-01-01T22:53:59.083Z,3.80
2023-01-01T22:59:00.839Z,3.80
2023-01-01T23:04:02.593Z,3.80
2023-01-01T23:09:05.509Z,3.80
2023-01-01T23:14:25.789Z,3.70
2023-01-01T23:19:27.517Z,3.80
2023-01-01T23:24:30.679Z,3.80
2023-01-01T23:29:34.123Z,3.80
2023-01-01T23:34:36.609Z,3.80
2023-01-01T23:39:38.383Z,3.80
2023-01-01T23:44:41.311Z,3.80
2023-01-01T23:49:43.405Z,3.70
2023-01-01T23:54:45.106Z,3.70
2023-01-01T23:59:46.894Z,3.80
